createdAt,value
2022-10-18T00:02:12.628Z,101159.00
2022-10-18T00:04:42.462Z,101173.00
2022-10-18T00:07:10.852Z,101175.00
2022-10-18T00:09:39.345Z,101165.00
2022-10-18T00:12:07.799Z,101164.00
2022-10-18T00:14:36.221Z,101171.00
2022-10-18T00:17:04.657Z,101169.00
2022-10-18T00:19:33.139Z,101170.00
2022-10-18T00:22:03.012Z,101170.00
2022-10-18T00:24:31.447Z,101162.00
2022-10-18T00:26:59.894Z,101167.00
2022-10-18T00:29:28.334Z,101168.00
2022-10-18T00:31:56.758Z,101166.00
2022-10-18T00:34:25.217Z,101172.00
2022-10-18T00:36:55.009Z,101169.00
2022-10-18T00:39:24.978Z,101174.00
2022-10-18T00:41:53.727Z,101176.00
2022-10-18T00:44:59.718Z,101177.00
2022-10-18T00:47:28.701Z,101175.00
2022-10-18T00:49:59.622Z,101170.00
2022-10-18T00:52:36.608Z,101167.00
2022-10-18T00:55:08.486Z,101177.00
2022-10-18T00:57:37.563Z,101171.00
2022-10-18T01:00:09.947Z,101166.00
2022-10-18T01:02:39.216Z,101170.00
2022-10-18T01:05:09.055Z,101168.00
2022-10-18T01:08:12.507Z,101171.00
2022-10-18T01:10:50.817Z,101167.00
2022-10-18T01:13:36.035Z,101173.00
2022-10-18T01:16:17.073Z,101175.00
2022-10-18T01:18:50.571Z,101173.00
2022-10-18T01:21:32.926Z,101163.00
2022-10-18T01:24:37.793Z,101179.00
2022-10-18T01:27:31.450Z,101178.00
2022-10-18T01:30:30.054Z,101172.00
2022-10-18T01:33:06.238Z,101174.00
2022-10-18T01:35:39.350Z,101175.00
2022-10-18T01:38:12.015Z,101176.00
2022-10-18T01:40:42.881Z,101179.00
2022-10-18T01:43:13.204Z,101182.00
2022-10-18T01:45:42.801Z,101184.00
2022-10-18T01:48:14.492Z,101174.00
2022-10-18T01:50:43.031Z,101181.00
2022-10-18T01:53:29.090Z,101189.00
2022-10-18T01:56:11.663Z,101180.00
2022-10-18T01:58:47.592Z,101183.00
2022-10-18T02:01:25.952Z,101184.00
2022-10-18T02:04:02.007Z,101181.00
2022-10-18T02:06:35.491Z,101181.00
2022-10-18T02:09:10.539Z,101184.00
2022-10-18T02:11:41.037Z,101185.00
2022-10-18T02:14:12.602Z,101179.00
2022-10-18T02:16:44.859Z,101184.00
2022-10-18T02:19:21.463Z,101185.00
2022-10-18T02:21:51.260Z,101181.00
2022-10-18T02:24:20.259Z,101186.00
2022-10-18T02:26:49.087Z,101187.00
2022-10-18T02:29:17.736Z,101185.00
2022-10-18T02:31:47.494Z,101195.00
2022-10-18T02:34:21.755Z,101180.00
2022-10-18T02:36:54.530Z,101190.00
2022-10-18T02:39:26.395Z,101190.00
2022-10-18T02:41:55.826Z,101188.00
2022-10-18T02:44:24.403Z,101183.00
2022-10-18T02:46:53.204Z,101183.00
2022-10-18T02:49:23.385Z,101182.00
2022-10-18T02:51:51.829Z,101177.00
2022-10-18T02:54:20.244Z,101185.00
2022-10-18T02:56:48.708Z,101188.00
2022-10-18T02:59:17.444Z,101190.00
2022-10-18T03:01:46.055Z,101188.00
2022-10-18T03:04:14.631Z,101190.00
2022-10-18T03:06:44.526Z,101197.00
2022-10-18T03:09:12.976Z,101213.00
2022-10-18T03:11:41.430Z,101204.00
2022-10-18T03:14:09.900Z,101218.00
2022-10-18T03:16:38.400Z,101205.00
2022-10-18T03:19:06.969Z,101204.00
2022-10-18T03:21:35.415Z,101208.00
2022-10-18T03:24:05.915Z,101209.00
2022-10-18T03:26:34.391Z,101202.00
2022-10-18T03:29:02.930Z,101199.00
2022-10-18T03:34:04.834Z,101202.00
2022-10-18T03:36:33.942Z,101191.00
2022-10-18T03:39:03.764Z,101190.00
2022-10-18T03:41:32.241Z,101198.00
2022-10-18T03:44:00.737Z,101199.00
2022-10-18T03:46:29.182Z,101196.00
2022-10-18T03:48:57.618Z,101194.00
2022-10-18T03:51:26.230Z,101197.00
2022-10-18T03:53:54.732Z,101192.00
2022-10-18T03:56:24.542Z,101196.00
2022-10-18T03:58:53.025Z,101192.00
2022-10-18T04:01:21.863Z,101191.00
2022-10-18T04:03:55.123Z,101187.00
2022-10-18T04:06:23.548Z,101186.00
2022-10-18T04:08:52.012Z,101179.00
2022-10-18T04:11:20.460Z,101184.00
2022-10-18T04:13:50.483Z,101190.00
2022-10-18T04:16:18.914Z,101192.00
2022-10-18T04:18:47.365Z,101186.00
2022-10-18T04:21:15.801Z,101198.00
2022-10-18T04:23:44.308Z,101199.00
2022-10-18T04:26:12.738Z,101196.00
2022-10-18T04:28:41.283Z,101189.00
2022-10-18T04:31:11.300Z,101198.00
2022-10-18T04:33:40.020Z,101190.00
2022-10-18T04:36:08.708Z,101195.00
2022-10-18T04:38:37.164Z,101193.00
2022-10-18T04:41:05.716Z,101203.00
2022-10-18T04:43:34.318Z,101207.00
2022-10-18T04:46:02.819Z,101203.00
2022-10-18T04:48:32.635Z,101201.00
2022-10-18T04:51:01.073Z,101198.00
2022-10-18T04:53:29.526Z,101200.00
2022-10-18T04:55:58.005Z,101211.00
2022-10-18T04:58:26.531Z,101200.00
2022-10-18T05:00:55.108Z,101202.00
2022-10-18T05:03:23.550Z,101193.00
2022-10-18T05:06:01.779Z,101193.00
2022-10-18T05:08:32.847Z,101195.00
2022-10-18T05:11:01.846Z,101186.00
2022-10-18T05:13:30.751Z,101185.00
2022-10-18T05:16:00.759Z,101189.00
2022-10-18T05:18:29.361Z,101188.00
2022-10-18T05:20:59.494Z,101185.00
2022-10-18T05:23:27.976Z,101182.00
2022-10-18T05:25:56.609Z,101180.00
2022-10-18T05:28:41.464Z,101196.00
2022-10-18T05:31:12.628Z,101193.00
2022-10-18T05:33:41.081Z,101183.00
2022-10-18T05:36:11.705Z,101184.00
2022-10-18T05:38:42.859Z,101181.00
2022-10-18T05:41:12.265Z,101170.00
2022-10-18T05:43:40.811Z,101171.00
2022-10-18T05:46:15.102Z,101162.00
2022-10-18T05:48:44.910Z,101152.00
2022-10-18T05:51:14.708Z,101145.00
2022-10-18T05:53:43.145Z,101143.00
2022-10-18T05:56:13.166Z,101151.00
2022-10-18T05:58:42.595Z,101159.00
2022-10-18T06:01:11.698Z,101151.00
2022-10-18T06:03:40.205Z,101150.00
2022-10-18T06:06:11.413Z,101149.00
2022-10-18T06:08:42.515Z,101150.00
2022-10-18T06:11:12.061Z,101153.00
2022-10-18T06:13:44.537Z,101145.00
2022-10-18T06:16:14.398Z,101135.00
2022-10-18T06:18:43.801Z,101136.00
2022-10-18T06:21:12.251Z,101131.00
2022-10-18T06:23:42.497Z,101136.00
2022-10-18T06:26:12.767Z,101136.00
2022-10-18T06:28:41.278Z,101152.00
2022-10-18T06:31:09.799Z,101152.00
2022-10-18T06:33:38.258Z,101162.00
2022-10-18T06:36:08.439Z,101161.00
2022-10-18T06:38:36.889Z,101156.00
2022-10-18T06:41:07.324Z,101170.00
2022-10-18T06:43:35.786Z,101166.00
2022-10-18T06:46:06.940Z,101167.00
2022-10-18T06:48:35.985Z,101169.00
2022-10-18T06:51:07.274Z,101173.00
2022-10-18T06:53:44.094Z,101164.00
2022-10-18T06:56:18.491Z,101166.00
2022-10-18T06:58:46.990Z,101164.00
2022-10-18T07:01:17.600Z,101170.00
2022-10-18T07:03:47.136Z,101164.00
2022-10-18T07:06:17.599Z,101163.00
2022-10-18T07:08:47.231Z,101164.00
2022-10-18T07:11:19.003Z,101157.00
2022-10-18T07:13:47.508Z,101164.00
2022-10-18T07:16:18.585Z,101165.00
2022-10-18T07:18:49.385Z,101171.00
2022-10-18T07:21:19.678Z,101175.00
2022-10-18T07:23:48.521Z,101178.00
2022-10-18T07:26:20.675Z,101171.00
2022-10-18T07:28:51.476Z,101173.00
2022-10-18T07:31:20.129Z,101169.00
2022-10-18T07:33:48.770Z,101166.00
2022-10-18T07:36:17.595Z,101166.00
2022-10-18T07:38:46.065Z,101167.00
2022-10-18T07:41:15.522Z,101166.00
2022-10-18T07:43:47.408Z,101157.00
2022-10-18T07:46:16.748Z,101149.00
2022-10-18T07:48:45.463Z,101157.00
2022-10-18T07:51:14.181Z,101156.00
2022-10-18T07:53:42.970Z,101149.00
2022-10-18T07:56:16.136Z,101158.00
2022-10-18T07:58:47.093Z,101164.00
2022-10-18T08:01:16.387Z,101162.00
2022-10-18T08:03:45.204Z,101157.00
2022-10-18T08:06:16.431Z,101145.00
2022-10-18T08:08:45.440Z,101160.00
2022-10-18T08:11:15.791Z,101146.00
2022-10-18T08:13:46.183Z,101141.00
2022-10-18T08:16:17.065Z,101137.00
2022-10-18T08:18:45.598Z,101136.00
2022-10-18T08:21:16.232Z,101131.00
2022-10-18T08:23:45.087Z,101126.00
2022-10-18T08:26:15.955Z,101124.00
2022-10-18T08:28:53.942Z,101106.00
2022-10-18T08:31:27.305Z,101099.00
2022-10-18T08:33:57.192Z,101102.00
2022-10-18T08:36:25.714Z,101093.00
2022-10-18T08:38:54.180Z,101088.00
2022-10-18T08:41:49.327Z,101089.00
2022-10-18T08:44:23.254Z,101091.00
2022-10-18T08:46:53.936Z,101095.00
2022-10-18T08:49:28.993Z,101091.00
2022-10-18T08:51:58.419Z,101086.00
2022-10-18T08:54:34.660Z,101079.00
2022-10-18T08:57:08.053Z,101087.00
2022-10-18T08:59:41.398Z,101085.00
2022-10-18T09:02:23.872Z,101081.00
2022-10-18T09:05:01.231Z,101078.00
2022-10-18T09:07:53.006Z,101085.00
2022-10-18T09:10:34.545Z,101088.00
2022-10-18T09:13:28.367Z,101076.00
2022-10-18T09:16:00.416Z,101075.00
2022-10-18T09:18:40.558Z,101067.00
2022-10-18T09:21:18.457Z,101058.00
2022-10-18T09:23:50.184Z,101045.00
2022-10-18T09:26:20.823Z,101043.00
2022-10-18T09:29:02.396Z,101036.00
2022-10-18T09:31:40.301Z,101029.00
2022-10-18T09:34:13.755Z,101032.00
2022-10-18T09:36:42.821Z,101033.00
2022-10-18T09:39:15.213Z,101024.00
2022-10-18T09:41:51.785Z,101026.00
2022-10-18T09:44:24.179Z,101033.00
2022-10-18T09:46:57.484Z,101031.00
2022-10-18T09:49:29.351Z,101029.00
2022-10-18T09:52:01.059Z,101044.00
2022-10-18T09:54:33.639Z,101059.00
2022-10-18T09:57:05.863Z,101072.00
2022-10-18T09:59:41.254Z,101090.00
2022-10-18T10:02:15.731Z,101111.00
2022-10-18T10:04:44.695Z,101116.00
2022-10-18T10:07:17.605Z,101142.00
2022-10-18T10:09:48.635Z,101130.00
2022-10-18T10:12:29.317Z,101116.00
2022-10-18T10:15:08.078Z,101116.00
2022-10-18T10:17:37.936Z,101110.00
2022-10-18T10:20:18.903Z,101123.00
2022-10-18T10:22:48.482Z,101111.00
2022-10-18T10:25:29.942Z,101106.00
2022-10-18T10:28:04.359Z,101125.00
2022-10-18T10:30:35.449Z,101136.00
2022-10-18T10:33:06.788Z,101112.00
2022-10-18T10:35:53.929Z,101136.00
2022-10-18T10:38:28.083Z,101142.00
2022-10-18T10:40:56.975Z,101158.00
2022-10-18T10:43:44.051Z,101165.00
2022-10-18T10:46:14.986Z,101146.00
2022-10-18T10:48:49.530Z,101128.00
2022-10-18T10:51:28.521Z,101111.00
2022-10-18T10:54:04.777Z,101114.00
2022-10-18T10:56:36.278Z,101112.00
2022-10-18T10:59:14.379Z,101108.00
2022-10-18T11:01:43.675Z,101122.00
2022-10-18T11:04:27.835Z,101123.00
2022-10-18T11:07:04.103Z,101132.00
2022-10-18T11:09:55.355Z,101152.00
2022-10-18T11:12:34.376Z,101152.00
2022-10-18T11:15:20.200Z,101155.00
2022-10-18T11:18:00.188Z,101147.00
2022-10-18T11:20:36.261Z,101144.00
2022-10-18T11:23:07.543Z,101147.00
2022-10-18T11:25:55.246Z,101146.00
2022-10-18T11:28:35.032Z,101147.00
2022-10-18T11:31:14.023Z,101164.00
2022-10-18T11:34:08.185Z,101149.00
2022-10-18T11:36:57.937Z,101149.00
2022-10-18T11:39:50.954Z,101147.00
2022-10-18T11:42:28.353Z,101144.00
2022-10-18T11:45:07.554Z,101143.00
2022-10-18T11:47:45.492Z,101149.00
2022-10-18T11:50:26.267Z,101165.00
2022-10-18T11:53:06.688Z,101176.00
2022-10-18T11:55:46.096Z,101168.00
2022-10-18T11:58:35.691Z,101175.00
2022-10-18T12:01:12.881Z,101174.00
2022-10-18T12:03:52.754Z,101179.00
2022-10-18T12:06:24.916Z,101178.00
2022-10-18T12:08:59.580Z,101178.00
2022-10-18T12:11:31.966Z,101177.00
2022-10-18T12:14:02.958Z,101170.00
2022-10-18T12:16:50.598Z,101169.00
2022-10-18T12:19:26.671Z,101174.00
2022-10-18T12:21:58.502Z,101179.00
2022-10-18T12:24:31.328Z,101177.00
2022-10-18T12:27:02.064Z,101176.00
2022-10-18T12:29:36.742Z,101179.00
2022-10-18T12:32:09.457Z,101189.00
2022-10-18T12:34:43.038Z,101194.00
2022-10-18T12:37:46.199Z,101188.00
2022-10-18T12:40:21.341Z,101190.00
2022-10-18T12:42:52.112Z,101182.00
2022-10-18T12:45:30.206Z,101175.00
2022-10-18T12:48:01.934Z,101175.00
2022-10-18T12:50:35.213Z,101167.00
2022-10-18T12:53:07.729Z,101177.00
2022-10-18T12:55:39.469Z,101177.00
2022-10-18T12:58:27.857Z,101187.00
2022-10-18T13:01:01.138Z,101194.00
2022-10-18T13:04:01.981Z,101197.00
2022-10-18T13:07:03.941Z,101199.00
2022-10-18T13:09:35.582Z,101193.00
2022-10-18T13:12:49.151Z,101194.00
2022-10-18T13:15:39.742Z,101187.00
2022-10-18T13:18:19.510Z,101194.00
2022-10-18T13:20:55.329Z,101195.00
2022-10-18T13:23:39.179Z,101194.00
2022-10-18T13:26:20.290Z,101188.00
2022-10-18T13:28:58.892Z,101192.00
2022-10-18T13:31:36.557Z,101197.00
2022-10-18T13:34:25.077Z,101194.00
2022-10-18T13:37:02.178Z,101191.00
2022-10-18T13:39:31.642Z,101188.00
2022-10-18T13:42:33.116Z,101184.00
2022-10-18T13:45:38.877Z,101184.00
2022-10-18T13:48:59.219Z,101192.00
2022-10-18T13:51:49.263Z,101176.00
2022-10-18T13:54:39.238Z,101178.00
2022-10-18T13:57:18.798Z,101176.00
2022-10-18T14:00:04.559Z,101175.00
2022-10-18T14:03:09.257Z,101185.00
2022-10-18T14:05:52.380Z,101189.00
2022-10-18T14:08:28.282Z,101186.00
2022-10-18T14:11:04.071Z,101194.00
2022-10-18T14:13:39.685Z,101205.00
2022-10-18T14:16:20.953Z,101205.00
2022-10-18T14:18:52.515Z,101210.00
2022-10-18T14:21:31.103Z,101210.00
2022-10-18T14:24:01.429Z,101217.00
2022-10-18T14:26:29.994Z,101221.00
2022-10-18T14:29:06.238Z,101220.00
2022-10-18T14:31:35.664Z,101215.00
2022-10-18T14:34:04.746Z,101217.00
2022-10-18T14:36:41.003Z,101217.00
2022-10-18T14:39:21.037Z,101212.00
2022-10-18T14:41:51.322Z,101206.00
2022-10-18T14:44:22.594Z,101210.00
2022-10-18T14:46:53.440Z,101207.00
2022-10-18T14:49:22.795Z,101204.00
2022-10-18T14:51:53.800Z,101214.00
2022-10-18T14:54:30.668Z,101212.00
2022-10-18T14:57:01.379Z,101213.00
2022-10-18T14:59:33.176Z,101212.00
2022-10-18T15:02:05.093Z,101205.00
2022-10-18T15:04:34.156Z,101203.00
2022-10-18T15:07:04.367Z,101213.00
2022-10-18T15:09:35.846Z,101210.00
2022-10-18T15:12:06.711Z,101218.00
2022-10-18T15:14:36.668Z,101213.00
2022-10-18T15:17:09.393Z,101209.00
2022-10-18T15:19:39.952Z,101209.00
2022-10-18T15:25:16.732Z,101213.00
2022-10-18T15:27:47.781Z,101213.00
2022-10-18T15:30:24.775Z,101205.00
2022-10-18T15:32:55.714Z,101211.00
2022-10-18T15:35:27.998Z,101211.00
2022-10-18T15:37:58.749Z,101224.00
2022-10-18T15:40:39.614Z,101221.00
2022-10-18T15:43:36.125Z,101219.00
2022-10-18T15:46:07.293Z,101235.00
2022-10-18T15:48:38.649Z,101239.00
2022-10-18T15:51:08.635Z,101237.00
2022-10-18T15:53:45.955Z,101237.00
2022-10-18T15:56:36.335Z,101229.00
2022-10-18T15:59:08.831Z,101241.00
2022-10-18T16:01:42.891Z,101244.00
2022-10-18T16:04:19.231Z,101240.00
2022-10-18T16:06:47.689Z,101245.00
2022-10-18T16:09:19.016Z,101245.00
2022-10-18T16:11:56.435Z,101235.00
2022-10-18T16:14:26.375Z,101233.00
2022-10-18T16:16:56.602Z,101239.00
2022-10-18T16:19:25.058Z,101235.00
2022-10-18T16:21:54.818Z,101232.00
2022-10-18T16:24:23.670Z,101238.00
2022-10-18T16:26:54.119Z,101247.00
2022-10-18T16:29:26.840Z,101244.00
2022-10-18T16:31:58.102Z,101240.00
2022-10-18T16:34:27.644Z,101241.00
2022-10-18T16:36:56.470Z,101248.00
2022-10-18T16:39:25.572Z,101250.00
2022-10-18T16:41:55.333Z,101256.00
2022-10-18T16:44:23.747Z,101254.00
2022-10-18T16:46:54.013Z,101244.00
2022-10-18T16:49:26.743Z,101245.00
2022-10-18T16:51:56.380Z,101245.00
2022-10-18T16:54:24.850Z,101251.00
2022-10-18T16:56:54.688Z,101243.00
2022-10-18T16:59:26.631Z,101249.00
2022-10-18T17:01:55.332Z,101250.00
2022-10-18T17:04:23.858Z,101240.00
2022-10-18T17:06:53.704Z,101248.00
2022-10-18T17:09:22.160Z,101246.00
2022-10-18T17:11:50.644Z,101249.00
2022-10-18T17:14:20.474Z,101253.00
2022-10-18T17:16:53.091Z,101256.00
2022-10-18T17:19:24.559Z,101252.00
2022-10-18T17:21:53.019Z,101261.00
2022-10-18T17:24:21.489Z,101263.00
2022-10-18T17:26:49.985Z,101248.00
2022-10-18T17:29:19.794Z,101254.00
2022-10-18T17:31:48.278Z,101263.00
2022-10-18T17:34:21.210Z,101264.00
2022-10-18T17:36:50.086Z,101262.00
2022-10-18T17:39:18.582Z,101269.00
2022-10-18T17:41:47.145Z,101266.00
2022-10-18T17:44:15.636Z,101269.00
2022-10-18T17:46:45.467Z,101270.00
2022-10-18T17:49:15.478Z,101270.00
2022-10-18T17:51:45.603Z,101269.00
2022-10-18T17:54:14.305Z,101277.00
2022-10-18T17:56:42.877Z,101269.00
2022-10-18T17:59:11.344Z,101274.00
2022-10-18T18:01:40.379Z,101266.00
2022-10-18T18:04:10.233Z,101273.00
2022-10-18T18:06:40.154Z,101270.00
2022-10-18T18:09:10.595Z,101270.00
2022-10-18T18:11:41.340Z,101265.00
2022-10-18T18:14:10.867Z,101268.00
2022-10-18T18:16:41.253Z,101273.00
2022-10-18T18:19:11.904Z,101267.00
2022-10-18T18:21:41.351Z,101273.00
2022-10-18T18:24:10.866Z,101276.00
2022-10-18T18:26:40.385Z,101276.00
2022-10-18T18:29:08.959Z,101278.00
2022-10-18T18:31:40.016Z,101279.00
2022-10-18T18:34:11.974Z,101277.00
2022-10-18T18:36:40.867Z,101276.00
2022-10-18T18:39:09.907Z,101282.00
2022-10-18T18:41:38.545Z,101286.00
2022-10-18T18:44:07.603Z,101282.00
2022-10-18T18:46:38.667Z,101282.00
2022-10-18T18:49:07.998Z,101280.00
2022-10-18T18:51:39.655Z,101283.00
2022-10-18T18:54:08.970Z,101280.00
2022-10-18T18:56:37.494Z,101278.00
2022-10-18T18:59:06.570Z,101277.00
2022-10-18T19:01:38.012Z,101278.00
2022-10-18T19:04:08.923Z,101270.00
2022-10-18T19:06:40.653Z,101268.00
2022-10-18T19:09:18.611Z,101277.00
2022-10-18T19:11:48.439Z,101279.00
2022-10-18T19:14:17.087Z,101278.00
2022-10-18T19:16:48.549Z,101284.00
2022-10-18T19:19:18.630Z,101273.00
2022-10-18T19:21:51.332Z,101283.00
2022-10-18T19:24:20.756Z,101283.00
2022-10-18T19:26:50.919Z,101283.00
2022-10-18T19:29:21.775Z,101279.00
2022-10-18T19:31:51.272Z,101283.00
2022-10-18T19:34:21.115Z,101290.00
2022-10-18T19:36:51.633Z,101279.00
2022-10-18T19:39:21.896Z,101279.00
2022-10-18T19:41:52.116Z,101278.00
2022-10-18T19:44:21.917Z,101280.00
2022-10-18T19:46:51.053Z,101279.00
2022-10-18T19:49:19.828Z,101280.00
2022-10-18T19:51:48.387Z,101277.00
2022-10-18T19:54:18.657Z,101272.00
2022-10-18T19:56:47.130Z,101283.00
2022-10-18T19:59:17.059Z,101270.00
2022-10-18T20:01:46.313Z,101276.00
2022-10-18T20:04:15.445Z,101279.00
2022-10-18T20:06:44.961Z,101286.00
2022-10-18T20:09:19.350Z,101288.00
2022-10-18T20:14:33.010Z,101281.00
2022-10-18T20:17:01.617Z,101285.00
2022-10-18T20:19:30.164Z,101281.00
2022-10-18T20:21:58.698Z,101282.00
2022-10-18T20:24:27.669Z,101282.00
2022-10-18T20:26:57.418Z,101276.00
2022-10-18T20:29:25.933Z,101282.00
2022-10-18T20:31:55.656Z,101282.00
2022-10-18T20:34:26.098Z,101288.00
2022-10-18T20:36:56.029Z,101286.00
2022-10-18T20:39:25.187Z,101297.00
2022-10-18T20:41:54.240Z,101293.00
2022-10-18T20:44:26.678Z,101288.00
2022-10-18T20:46:55.149Z,101299.00
2022-10-18T20:49:23.846Z,101291.00
2022-10-18T20:51:53.320Z,101289.00
2022-10-18T20:54:21.882Z,101284.00
2022-10-18T20:56:51.027Z,101286.00
2022-10-18T20:59:19.465Z,101290.00
2022-10-18T21:01:49.450Z,101287.00
2022-10-18T21:04:17.916Z,101295.00
2022-10-18T21:06:46.388Z,101296.00
2022-10-18T21:09:17.058Z,101299.00
2022-10-18T21:11:49.322Z,101297.00
2022-10-18T21:14:20.380Z,101284.00
2022-10-18T21:16:51.490Z,101294.00
2022-10-18T21:19:22.003Z,101291.00
2022-10-18T21:21:52.200Z,101297.00
2022-10-18T21:24:23.983Z,101298.00
2022-10-18T21:26:52.507Z,101305.00
2022-10-18T21:29:22.804Z,101300.00
2022-10-18T21:31:55.113Z,101300.00
2022-10-18T21:34:23.628Z,101304.00
2022-10-18T21:36:53.107Z,101305.00
2022-10-18T21:41:52.905Z,101306.00
2022-10-18T21:44:21.364Z,101308.00
2022-10-18T21:46:50.707Z,101301.00
2022-10-18T21:49:23.326Z,101303.00
2022-10-18T21:51:51.875Z,101306.00
2022-10-18T21:54:20.586Z,101310.00
2022-10-18T21:56:49.085Z,101312.00
2022-10-18T21:59:17.569Z,101319.00
2022-10-18T22:01:46.031Z,101311.00
2022-10-18T22:04:24.373Z,101311.00
2022-10-18T22:06:53.351Z,101307.00
2022-10-18T22:09:22.413Z,101300.00
2022-10-18T22:11:53.207Z,101306.00
2022-10-18T22:14:21.884Z,101300.00
2022-10-18T22:16:50.840Z,101304.00
2022-10-18T22:19:19.830Z,101303.00
2022-10-18T22:21:49.821Z,101310.00
2022-10-18T22:24:18.689Z,101303.00
2022-10-18T22:26:48.112Z,101314.00
2022-10-18T22:29:18.619Z,101301.00
2022-10-18T22:31:49.013Z,101307.00
2022-10-18T22:34:19.460Z,101306.00
2022-10-18T22:36:49.577Z,101304.00
2022-10-18T22:39:18.720Z,101300.00
2022-10-18T22:41:47.788Z,101297.00
2022-10-18T22:44:16.667Z,101288.00
2022-10-18T22:46:45.145Z,101287.00
2022-10-18T22:49:13.810Z,101287.00
2022-10-18T22:51:42.307Z,101280.00
2022-10-18T22:54:12.353Z,101292.00
2022-10-18T22:56:40.771Z,101286.00
2022-10-18T22:59:09.310Z,101290.00
2022-10-18T23:01:39.021Z,101280.00
2022-10-18T23:04:07.602Z,101273.00
2022-10-18T23:06:37.370Z,101291.00
2022-10-18T23:09:07.651Z,101281.00
2022-10-18T23:11:37.864Z,101293.00
2022-10-18T23:14:07.945Z,101302.00
2022-10-18T23:16:36.653Z,101295.00
2022-10-18T23:19:05.277Z,101297.00
2022-10-18T23:21:35.300Z,101285.00
2022-10-18T23:24:03.863Z,101281.00
2022-10-18T23:26:32.568Z,101287.00
2022-10-18T23:29:02.496Z,101285.00
2022-10-18T23:31:33.047Z,101294.00
2022-10-18T23:34:03.666Z,101297.00
2022-10-18T23:36:33.250Z,101302.00
2022-10-18T23:39:02.305Z,101292.00
2022-10-18T23:41:31.076Z,101298.00
2022-10-18T23:44:02.359Z,101301.00
2022-10-18T23:46:30.811Z,101300.00
2022-10-18T23:48:59.347Z,101300.00
2022-10-18T23:51:27.922Z,101303.00
2022-10-18T23:53:56.390Z,101306.00
2022-10-18T23:56:24.849Z,101302.00
2022-10-18T23:58:53.317Z,101309.00
